Time;durP1;ratioP1;P1;durP2;ratioP2;P2;SDS_P1;SDS_P2;PMS_P1;PMS_P2;Temp;Humidity;BMP_temperature;BMP_pressure;BME280_temperature;BME280_humidity;BME280_pressure;Samples;Min_cycle;Max_cycle;Signal;HPM_P1;HPM_P2
2021/05/21 00:01:33;;;;;;;2.22;1.00;;;12.60;99.90;;;;;;5041373;28;20025;-75
2021/05/21 00:03:59;;;;;;;1.10;0.93;;;12.70;99.90;;;;;;5042543;28;20028;-74
2021/05/21 00:06:24;;;;;;;2.08;0.93;;;12.70;99.90;;;;;;5032855;28;20017;-74
2021/05/21 00:08:50;;;;;;;3.53;1.20;;;12.70;99.90;;;;;;5040184;28;20061;-73
2021/05/21 00:11:16;;;;;;;1.58;1.00;;;12.60;99.90;;;;;;5040675;28;20029;-74
2021/05/21 00:13:42;;;;;;;1.13;0.90;;;12.60;99.90;;;;;;5032736;28;20037;-74
2021/05/21 00:16:08;;;;;;;2.85;1.05;;;12.60;99.90;;;;;;5014246;28;20030;-74
2021/05/21 00:18:33;;;;;;;2.00;1.00;;;12.50;99.90;;;;;;5040705;28;20025;-74
2021/05/21 00:20:59;;;;;;;1.50;1.10;;;12.50;99.90;;;;;;5036275;28;20040;-75
2021/05/21 00:23:25;;;;;;;2.25;1.05;;;12.50;99.90;;;;;;5037427;28;20056;-75
2021/05/21 00:25:50;;;;;;;1.25;1.08;;;12.40;99.90;;;;;;5038488;28;20025;-74
2021/05/21 00:28:16;;;;;;;2.25;0.75;;;12.30;99.90;;;;;;5035487;28;20025;-74
2021/05/21 00:30:42;;;;;;;3.90;1.30;;;12.30;99.90;;;;;;5044207;28;20021;-75
2021/05/21 00:33:08;;;;;;;1.63;0.88;;;12.30;99.90;;;;;;5038437;28;20089;-75
2021/05/21 00:35:34;;;;;;;4.93;1.40;;;12.30;99.90;;;;;;5032920;28;20108;-74
2021/05/21 00:37:59;;;;;;;1.88;0.90;;;12.20;99.90;;;;;;5030799;28;20041;-74
2021/05/21 00:40:25;;;;;;;3.10;1.00;;;12.20;99.90;;;;;;5038090;28;20059;-74
2021/05/21 00:42:51;;;;;;;3.00;0.93;;;12.20;99.90;;;;;;5032163;28;20075;-75
2021/05/21 00:45:16;;;;;;;2.75;1.77;;;12.20;99.90;;;;;;5038983;28;20033;-75
2021/05/21 00:47:42;;;;;;;0.98;0.85;;;12.20;99.90;;;;;;5032033;28;20025;-74
2021/05/21 00:50:09;;;;;;;1.77;1.17;;;12.20;99.90;;;;;;5039446;28;20036;-74
2021/05/21 00:52:38;;;;;;;6.53;1.23;;;12.20;99.90;;;;;;5035031;28;20025;-75
2021/05/21 00:55:08;;;;;;;2.85;1.00;;;12.20;99.90;;;;;;5023213;28;20021;-74
2021/05/21 00:57:35;;;;;;;5.25;0.65;;;12.10;99.90;;;;;;5039342;28;20017;-74
2021/05/21 01:00:01;;;;;;;4.38;0.82;;;12.10;99.90;;;;;;5022370;28;20055;-75
2021/05/21 01:02:27;;;;;;;2.22;0.98;;;12.00;99.90;;;;;;5031793;28;20036;-74
2021/05/21 01:04:52;;;;;;;0.82;0.80;;;12.10;99.90;;;;;;5035816;28;20033;-74
2021/05/21 01:07:18;;;;;;;1.80;1.20;;;12.00;99.90;;;;;;5037724;28;20099;-74
2021/05/21 01:09:44;;;;;;;0.77;0.77;;;12.10;99.90;;;;;;5043133;28;20017;-74
2021/05/21 01:12:11;;;;;;;0.57;0.50;;;12.10;99.90;;;;;;5020671;28;20033;-73
2021/05/21 01:14:47;;;;;;;3.00;1.00;;;12.10;99.90;;;;;;5032694;28;20361;-74
2021/05/21 01:17:13;;;;;;;1.00;0.90;;;12.10;99.90;;;;;;5033272;28;20414;-73
2021/05/21 01:19:38;;;;;;;1.88;1.00;;;12.10;99.90;;;;;;5041488;28;20021;-74
2021/05/21 01:22:04;;;;;;;4.05;1.25;;;12.10;99.90;;;;;;5030004;28;20100;-74
2021/05/21 01:24:30;;;;;;;3.15;1.83;;;12.00;99.90;;;;;;5042061;28;20025;-72
2021/05/21 01:26:58;;;;;;;1.17;0.90;;;12.10;99.90;;;;;;5045297;28;20495;-75
2021/05/21 01:29:23;;;;;;;1.73;0.98;;;12.10;99.90;;;;;;5039822;28;20075;-73
2021/05/21 01:31:49;;;;;;;2.03;1.00;;;12.10;99.90;;;;;;5029249;28;20029;-74
2021/05/21 01:34:15;;;;;;;0.50;0.50;;;12.00;99.90;;;;;;5029978;28;20099;-75
2021/05/21 01:36:43;;;;;;;2.83;1.13;;;12.00;99.90;;;;;;5033765;28;20032;-74
2021/05/21 01:39:10;;;;;;;0.80;0.80;;;12.00;99.90;;;;;;5029736;28;20105;-74
2021/05/21 01:41:38;;;;;;;2.45;0.90;;;12.10;99.90;;;;;;5025741;28;20558;-74
2021/05/21 01:44:06;;;;;;;1.38;1.02;;;12.10;99.90;;;;;;5025119;28;20730;-74
2021/05/21 01:46:32;;;;;;;2.78;1.30;;;12.00;99.90;;;;;;5027985;28;20527;-75
2021/05/21 01:48:58;;;;;;;0.95;0.95;;;12.00;99.90;;;;;;5028381;28;20566;-74
2021/05/21 01:51:23;;;;;;;1.73;1.08;;;11.90;99.90;;;;;;5028038;28;20017;-75
2021/05/21 01:53:49;;;;;;;2.92;0.75;;;11.90;99.90;;;;;;5031029;28;20104;-73
2021/05/21 01:56:15;;;;;;;2.90;0.63;;;11.90;99.90;;;;;;5024021;28;20068;-75
2021/05/21 01:58:41;;;;;;;1.63;0.65;;;11.90;99.90;;;;;;5029918;28;20049;-74
2021/05/21 02:01:06;;;;;;;2.10;1.27;;;11.90;99.90;;;;;;5026360;28;20076;-76
2021/05/21 02:03:33;;;;;;;1.20;1.10;;;11.90;99.90;;;;;;5024238;28;20105;-74
2021/05/21 02:05:59;;;;;;;5.53;1.23;;;11.80;99.90;;;;;;5030475;28;20075;-74
2021/05/21 02:08:26;;;;;;;1.13;0.82;;;11.80;99.90;;;;;;5029968;28;20033;-75
2021/05/21 02:10:53;;;;;;;3.47;0.82;;;11.80;99.90;;;;;;5028617;28;20017;-75
2021/05/21 02:13:18;;;;;;;2.15;1.15;;;11.80;99.90;;;;;;5025275;28;20091;-74
2021/05/21 02:15:45;;;;;;;0.90;0.73;;;11.80;99.90;;;;;;5029182;28;20052;-74
2021/05/21 02:18:11;;;;;;;1.42;0.80;;;11.80;99.90;;;;;;5020134;28;20081;-73
2021/05/21 02:20:37;;;;;;;3.50;1.02;;;11.80;99.90;;;;;;5012374;28;20018;-74
2021/05/21 02:23:04;;;;;;;3.17;1.05;;;11.90;99.90;;;;;;5029631;28;20030;-75
2021/05/21 02:25:30;;;;;;;0.85;0.70;;;11.90;99.90;;;;;;5026720;28;20090;-75
2021/05/21 02:27:56;;;;;;;5.90;1.10;;;11.90;99.90;;;;;;5029180;28;20542;-74
2021/05/21 02:30:21;;;;;;;0.77;0.50;;;11.90;99.90;;;;;;5029123;28;20022;-73
2021/05/21 02:32:47;;;;;;;3.13;0.82;;;12.00;99.90;;;;;;5023967;28;20017;-75
2021/05/21 02:35:15;;;;;;;3.83;1.98;;;11.90;99.90;;;;;;5029168;28;20048;-75
2021/05/21 02:37:41;;;;;;;1.23;1.10;;;11.90;99.90;;;;;;5029789;28;20442;-75
2021/05/21 02:40:08;;;;;;;0.93;0.60;;;12.00;99.90;;;;;;5028887;28;20099;-73
2021/05/21 02:42:34;;;;;;;0.90;0.60;;;12.00;99.90;;;;;;5028063;28;20033;-74
2021/05/21 02:45:00;;;;;;;4.82;0.75;;;12.00;99.90;;;;;;5025961;28;20104;-74
2021/05/21 02:47:26;;;;;;;2.25;0.85;;;12.00;99.90;;;;;;5024184;28;20025;-75
2021/05/21 02:49:51;;;;;;;1.10;0.80;;;12.00;99.90;;;;;;5027670;28;20032;-74
2021/05/21 02:52:17;;;;;;;3.28;0.98;;;12.00;99.90;;;;;;5028919;28;20085;-73
2021/05/21 02:54:43;;;;;;;0.70;0.70;;;12.00;99.90;;;;;;5027661;28;20080;-74
2021/05/21 02:57:09;;;;;;;0.95;0.80;;;12.00;99.90;;;;;;5018859;28;20025;-73
2021/05/21 02:59:34;;;;;;;1.73;1.08;;;12.00;99.90;;;;;;5028865;28;20112;-76
2021/05/21 03:02:00;;;;;;;0.77;0.77;;;12.00;99.90;;;;;;5027708;28;20451;-74
2021/05/21 03:04:26;;;;;;;0.60;0.60;;;12.10;99.90;;;;;;5025934;28;20083;-74
2021/05/21 03:06:52;;;;;;;6.60;0.85;;;12.00;99.90;;;;;;5023392;28;20021;-74
2021/05/21 03:09:17;;;;;;;1.67;0.80;;;12.10;99.90;;;;;;5028908;28;20430;-73
2021/05/21 03:11:43;;;;;;;2.97;1.02;;;12.10;99.90;;;;;;5024337;28;20022;-74
2021/05/21 03:14:09;;;;;;;1.65;0.85;;;12.10;99.90;;;;;;5026096;28;20647;-73
2021/05/21 03:16:34;;;;;;;7.47;1.33;;;12.10;99.90;;;;;;5034796;28;20045;-73
2021/05/21 03:19:00;;;;;;;2.95;1.02;;;12.20;99.90;;;;;;5028820;28;20037;-74
2021/05/21 03:21:26;;;;;;;0.85;0.57;;;12.20;99.90;;;;;;5023794;28;20033;-75
2021/05/21 03:23:52;;;;;;;3.40;1.73;;;12.10;99.90;;;;;;5020291;28;20021;-74
2021/05/21 03:26:18;;;;;;;1.67;0.68;;;12.10;99.90;;;;;;5029103;28;20030;-76
2021/05/21 03:28:43;;;;;;;1.65;1.13;;;12.10;99.90;;;;;;5028247;28;20499;-75
2021/05/21 03:31:09;;;;;;;1.55;1.05;;;12.10;99.90;;;;;;5029921;28;20028;-74
2021/05/21 03:33:35;;;;;;;5.72;0.90;;;12.10;99.90;;;;;;5027934;28;20398;-75
2021/05/21 03:36:02;;;;;;;4.20;0.80;;;12.10;99.90;;;;;;5032600;28;20100;-75
2021/05/21 03:38:28;;;;;;;4.43;1.15;;;12.10;99.90;;;;;;5040789;28;20552;-76
2021/05/21 03:40:54;;;;;;;3.92;1.42;;;12.10;99.90;;;;;;5027513;28;20031;-74
2021/05/21 03:43:21;;;;;;;4.10;0.90;;;12.20;99.90;;;;;;5026305;28;20025;-73
2021/05/21 03:45:46;;;;;;;4.53;1.77;;;12.20;99.90;;;;;;5030704;28;20387;-74
2021/05/21 03:48:13;;;;;;;0.77;0.50;;;12.20;99.90;;;;;;5032359;28;20029;-74
2021/05/21 03:50:39;;;;;;;1.38;1.20;;;12.30;99.90;;;;;;5032617;28;20017;-74
2021/05/21 03:53:06;;;;;;;1.67;0.80;;;12.30;99.90;;;;;;5033597;28;20542;-75
2021/05/21 03:55:31;;;;;;;5.35;1.48;;;12.40;99.90;;;;;;5033330;28;20033;-75
2021/05/21 03:57:57;;;;;;;9.23;0.90;;;12.30;99.90;;;;;;5031367;28;20036;-74
2021/05/21 04:00:23;;;;;;;0.98;0.70;;;12.30;99.90;;;;;;5031578;28;20414;-75
2021/05/21 04:02:50;;;;;;;1.50;0.80;;;12.40;99.90;;;;;;5033476;28;20112;-75
2021/05/21 04:05:17;;;;;;;1.35;0.80;;;12.30;99.90;;;;;;5031818;28;20466;-75
2021/05/21 04:07:44;;;;;;;2.55;0.60;;;12.40;99.90;;;;;;5031487;28;20088;-74
2021/05/21 04:10:11;;;;;;;1.17;0.73;;;12.50;99.90;;;;;;5025171;28;20079;-73
2021/05/21 04:12:37;;;;;;;3.13;0.65;;;12.50;99.90;;;;;;5023317;28;20025;-74
2021/05/21 04:15:04;;;;;;;0.90;0.70;;;12.70;99.90;;;;;;5030673;28;20391;-76
2021/05/21 04:17:29;;;;;;;3.20;1.00;;;12.80;99.90;;;;;;5031596;28;20040;-73
2021/05/21 04:19:55;;;;;;;0.70;0.70;;;12.80;99.90;;;;;;5031881;28;20399;-74
2021/05/21 04:22:21;;;;;;;0.65;0.63;;;12.80;99.90;;;;;;5031897;28;20399;-74
2021/05/21 04:24:47;;;;;;;1.08;1.00;;;12.90;99.90;;;;;;5032681;28;20026;-74
2021/05/21 04:27:13;;;;;;;0.65;0.65;;;13.00;99.90;;;;;;5031535;28;20427;-73
2021/05/21 04:29:39;;;;;;;3.40;1.65;;;13.00;99.90;;;;;;5031129;28;20033;-74
2021/05/21 04:32:06;;;;;;;1.02;0.85;;;13.20;99.90;;;;;;5033014;28;20021;-74
2021/05/21 04:34:32;;;;;;;0.68;0.68;;;13.20;99.90;;;;;;5023046;28;20026;-75
2021/05/21 04:36:59;;;;;;;0.43;0.43;;;13.30;99.90;;;;;;5029166;28;20045;-75
2021/05/21 04:39:26;;;;;;;2.60;0.70;;;13.40;99.90;;;;;;5027816;28;20025;-74
2021/05/21 04:41:53;;;;;;;1.67;0.63;;;13.60;99.90;;;;;;5030896;28;20083;-74
2021/05/21 04:44:19;;;;;;;3.08;0.63;;;13.70;99.90;;;;;;5032954;28;20021;-74
2021/05/21 04:46:44;;;;;;;0.65;0.57;;;13.80;99.90;;;;;;5032010;28;20116;-74
2021/05/21 04:49:10;;;;;;;1.70;0.70;;;13.90;99.90;;;;;;5027289;28;20034;-73
2021/05/21 04:51:37;;;;;;;0.93;0.70;;;14.00;99.90;;;;;;5027858;28;20026;-73
2021/05/21 04:54:03;;;;;;;1.50;0.85;;;14.10;99.90;;;;;;5030598;28;20773;-73
2021/05/21 04:56:29;;;;;;;1.17;0.90;;;14.20;99.90;;;;;;5031269;28;20036;-73
2021/05/21 04:58:55;;;;;;;0.93;0.70;;;14.20;99.90;;;;;;5031999;28;20367;-76
2021/05/21 05:01:20;;;;;;;5.25;1.20;;;14.30;99.90;;;;;;5030405;28;20033;-75
2021/05/21 05:03:46;;;;;;;0.93;0.80;;;14.40;99.90;;;;;;5031233;28;20029;-76
2021/05/21 05:06:12;;;;;;;1.13;0.82;;;14.40;99.90;;;;;;5030208;28;20029;-76
2021/05/21 05:08:39;;;;;;;1.10;1.00;;;14.40;99.90;;;;;;5032153;28;20306;-74
2021/05/21 05:11:05;;;;;;;2.17;1.27;;;14.40;99.90;;;;;;5029319;28;20038;-74
2021/05/21 05:13:31;;;;;;;2.83;1.52;;;14.50;99.90;;;;;;5028394;28;20032;-74
2021/05/21 05:15:57;;;;;;;5.63;1.85;;;14.50;99.90;;;;;;5035892;28;20541;-75
2021/05/21 05:18:22;;;;;;;11.50;2.95;;;14.50;99.90;;;;;;5028943;28;20025;-67
2021/05/21 05:20:48;;;;;;;8.02;2.72;;;14.40;99.90;;;;;;5028746;28;20454;-68
2021/05/21 05:23:16;;;;;;;4.18;2.17;;;14.40;99.90;;;;;;5028277;28;20026;-69
2021/05/21 05:25:43;;;;;;;4.57;1.90;;;14.40;99.90;;;;;;5026128;28;20471;-67
2021/05/21 05:28:08;;;;;;;3.95;1.73;;;14.50;99.90;;;;;;5030414;28;20025;-69
2021/05/21 05:30:34;;;;;;;4.15;2.80;;;14.60;99.90;;;;;;5030406;28;20112;-68
2021/05/21 05:33:00;;;;;;;2.58;1.23;;;14.60;99.90;;;;;;5031024;28;20479;-68
2021/05/21 05:35:26;;;;;;;6.47;2.00;;;14.70;99.90;;;;;;5039385;28;20078;-67
2021/05/21 05:37:52;;;;;;;5.03;2.00;;;14.70;99.90;;;;;;5035098;28;20040;-70
2021/05/21 05:40:17;;;;;;;5.20;1.45;;;14.80;99.90;;;;;;5045254;28;20025;-68
2021/05/21 05:42:43;;;;;;;7.43;2.45;;;14.90;99.90;;;;;;5040211;28;20122;-69
2021/05/21 05:45:10;;;;;;;7.45;1.98;;;15.00;99.90;;;;;;5039169;28;20036;-68
2021/05/21 05:47:36;;;;;;;6.45;1.80;;;15.10;99.90;;;;;;5016936;28;20029;-68
2021/05/21 05:50:02;;;;;;;5.70;2.15;;;15.10;99.90;;;;;;5039133;28;20079;-70
2021/05/21 05:52:28;;;;;;;13.07;2.63;;;15.30;99.90;;;;;;5038669;28;20031;-68
2021/05/21 05:54:54;;;;;;;7.60;2.15;;;15.50;99.90;;;;;;5041576;28;20016;-69
2021/05/21 05:57:20;;;;;;;5.30;1.90;;;15.60;99.90;;;;;;5032194;28;20108;-72
2021/05/21 05:59:46;;;;;;;4.05;1.77;;;15.70;99.90;;;;;;5033285;28;20519;-66
2021/05/21 06:02:12;;;;;;;4.50;1.63;;;15.80;99.90;;;;;;5037325;28;20035;-66
2021/05/21 06:04:38;;;;;;;8.70;2.50;;;15.90;99.90;;;;;;5042596;28;20044;-67
2021/05/21 06:07:04;;;;;;;7.55;2.47;;;16.10;99.90;;;;;;5042084;28;20067;-66
2021/05/21 06:09:30;;;;;;;3.58;1.67;;;16.20;99.90;;;;;;5042924;28;20494;-68
2021/05/21 06:11:56;;;;;;;1.80;1.25;;;16.40;99.90;;;;;;5036009;28;20032;-69
2021/05/21 06:14:22;;;;;;;4.50;1.70;;;16.40;99.90;;;;;;5033785;28;20063;-67
2021/05/21 06:16:48;;;;;;;5.47;1.70;;;16.50;99.90;;;;;;5041767;28;20116;-66
2021/05/21 06:19:13;;;;;;;3.13;1.20;;;16.60;99.90;;;;;;5035846;28;20030;-69
2021/05/21 06:21:39;;;;;;;1.95;1.10;;;16.60;99.90;;;;;;5043102;28;20155;-67
2021/05/21 06:24:06;;;;;;;2.05;1.23;;;16.60;99.90;;;;;;5036976;28;20089;-66
2021/05/21 06:26:41;;;;;;;2.75;1.90;;;16.70;99.90;;;;;;5040191;28;20547;-69
2021/05/21 06:29:07;;;;;;;4.15;1.40;;;16.80;99.90;;;;;;5024832;28;20452;-68
2021/05/21 06:31:33;;;;;;;1.92;0.70;;;16.90;99.90;;;;;;5028027;28;20028;-67
2021/05/21 06:33:59;;;;;;;1.30;1.17;;;17.00;99.90;;;;;;5030868;28;20479;-67
2021/05/21 06:36:25;;;;;;;3.50;2.10;;;17.00;99.90;;;;;;5030000;28;20056;-68
2021/05/21 06:38:51;;;;;;;1.73;0.95;;;17.20;99.90;;;;;;5029940;28;20107;-68
2021/05/21 06:41:17;;;;;;;7.22;1.85;;;17.40;99.90;;;;;;5029358;28;20599;-67
2021/05/21 06:43:42;;;;;;;5.63;1.38;;;17.40;99.90;;;;;;5029326;28;20025;-69
2021/05/21 06:46:08;;;;;;;5.00;2.00;;;17.50;99.90;;;;;;5028563;28;20049;-69
2021/05/21 06:48:35;;;;;;;2.45;1.48;;;17.70;99.90;;;;;;5033197;28;20453;-69
2021/05/21 06:51:06;;;;;;;5.50;1.20;;;17.70;99.90;;;;;;5031117;28;20030;-69
2021/05/21 06:53:33;;;;;;;1.55;1.45;;;17.80;99.90;;;;;;5029390;28;20113;-69
2021/05/21 06:55:59;;;;;;;3.90;1.38;;;17.90;99.90;;;;;;5030331;28;20013;-68
2021/05/21 06:58:26;;;;;;;4.13;1.35;;;18.00;99.90;;;;;;5033341;28;20029;-69
2021/05/21 07:00:52;;;;;;;1.77;1.50;;;18.00;99.90;;;;;;5028436;28;20022;-67
2021/05/21 07:03:19;;;;;;;1.80;1.23;;;18.10;99.90;;;;;;5029548;28;20044;-68
2021/05/21 07:05:45;;;;;;;3.22;1.13;;;18.10;99.90;;;;;;5033219;28;20104;-69
2021/05/21 07:08:11;;;;;;;2.17;1.45;;;18.30;99.90;;;;;;5033392;28;20021;-69
2021/05/21 07:10:37;;;;;;;2.60;1.30;;;18.40;99.90;;;;;;5033969;28;20020;-65
2021/05/21 07:13:11;;;;;;;2.63;1.20;;;18.50;99.90;;;;;;5029298;28;20664;-65
2021/05/21 07:15:37;;;;;;;1.10;1.00;;;18.60;99.90;;;;;;5033223;28;20029;-65
2021/05/21 07:18:03;;;;;;;2.80;0.85;;;18.70;99.90;;;;;;5031602;28;20475;-65
2021/05/21 07:20:29;;;;;;;1.77;1.55;;;18.70;99.90;;;;;;5032221;28;20029;-65
2021/05/21 07:22:55;;;;;;;7.72;1.00;;;18.80;99.90;;;;;;5032671;28;20992;-66
2021/05/21 07:25:20;;;;;;;2.97;0.77;;;19.00;99.90;;;;;;5032913;28;20095;-66
2021/05/21 07:27:46;;;;;;;1.45;0.55;;;19.10;99.90;;;;;;5032883;28;20120;-67
2021/05/21 07:30:12;;;;;;;1.33;0.70;;;19.10;99.90;;;;;;5032654;28;20029;-67
2021/05/21 07:32:38;;;;;;;1.65;0.93;;;19.10;99.90;;;;;;5031540;28;20123;-66
2021/05/21 07:35:07;;;;;;;0.30;0.30;;;19.20;99.90;;;;;;5041032;28;20051;-70
2021/05/21 07:37:34;;;;;;;1.85;0.80;;;19.30;99.90;;;;;;5039539;28;20498;-68
2021/05/21 07:40:00;;;;;;;0.38;0.35;;;19.40;99.90;;;;;;5027781;28;20394;-68
2021/05/21 07:42:25;;;;;;;2.88;0.60;;;19.60;99.90;;;;;;5041380;28;20029;-68
2021/05/21 07:44:51;;;;;;;0.85;0.60;;;19.60;99.90;;;;;;5037156;28;20032;-71
2021/05/21 07:47:17;;;;;;;0.80;0.57;;;19.60;99.90;;;;;;5026746;28;20033;-71
2021/05/21 07:49:43;;;;;;;0.82;0.60;;;19.70;99.90;;;;;;5044758;28;20025;-70
2021/05/21 07:52:08;;;;;;;0.38;0.38;;;19.80;99.90;;;;;;5031111;28;20022;-71
2021/05/21 07:54:34;;;;;;;0.28;0.28;;;20.00;99.90;;;;;;5032665;28;20024;-71
2021/05/21 07:57:00;;;;;;;0.85;0.70;;;20.00;99.90;;;;;;5042003;28;20017;-70
2021/05/21 07:59:25;;;;;;;2.72;1.23;;;20.10;99.90;;;;;;5042058;28;20474;-71
2021/05/21 08:01:51;;;;;;;3.90;1.25;;;20.20;99.90;;;;;;5039416;28;20017;-70
2021/05/21 08:04:17;;;;;;;5.43;1.02;;;20.30;99.90;;;;;;5034233;28;20029;-70
2021/05/21 08:06:43;;;;;;;0.50;0.50;;;20.30;99.90;;;;;;5040801;28;20382;-72
2021/05/21 08:09:09;;;;;;;5.30;0.82;;;20.30;99.90;;;;;;5032456;28;20037;-71
2021/05/21 08:11:35;;;;;;;3.80;0.80;;;20.30;99.90;;;;;;5023520;28;20502;-71
2021/05/21 08:14:01;;;;;;;4.82;0.77;;;20.40;99.90;;;;;;5034329;28;20057;-72
2021/05/21 08:16:30;;;;;;;1.33;0.80;;;20.70;99.90;;;;;;5039130;28;20025;-71
2021/05/21 08:18:56;;;;;;;0.77;0.63;;;20.90;99.90;;;;;;5039596;28;20042;-70
2021/05/21 08:21:26;;;;;;;1.70;0.70;;;21.00;99.90;;;;;;5033559;28;20013;-71
2021/05/21 08:23:53;;;;;;;1.65;0.73;;;21.20;99.90;;;;;;5040107;28;20013;-71
2021/05/21 08:26:22;;;;;;;5.03;1.42;;;21.40;99.90;;;;;;5041918;28;20099;-70
2021/05/21 08:28:48;;;;;;;6.32;1.02;;;21.50;99.90;;;;;;5040972;28;20053;-70
2021/05/21 08:31:14;;;;;;;3.88;0.65;;;21.40;99.90;;;;;;5042857;28;20057;-71
2021/05/21 08:33:43;;;;;;;1.58;0.90;;;21.40;99.90;;;;;;5040812;28;20033;-71
2021/05/21 08:36:10;;;;;;;1.05;0.70;;;21.30;99.90;;;;;;5031483;28;20554;-69
2021/05/21 08:38:37;;;;;;;4.10;0.57;;;21.50;99.90;;;;;;5025471;28;20038;-70
2021/05/21 08:41:05;;;;;;;4.05;0.60;;;21.40;99.90;;;;;;5031319;28;20032;-71
2021/05/21 08:43:32;;;;;;;1.02;0.70;;;21.30;99.90;;;;;;5029937;28;20025;-71
2021/05/21 08:45:59;;;;;;;7.40;0.85;;;21.20;99.90;;;;;;5031071;28;20052;-71
2021/05/21 08:48:24;;;;;;;3.58;0.80;;;21.20;99.90;;;;;;5027597;28;20021;-70
2021/05/21 08:50:50;;;;;;;0.70;0.65;;;21.20;99.90;;;;;;5030569;28;20536;-70
2021/05/21 08:53:17;;;;;;;5.55;0.77;;;21.20;99.90;;;;;;5030607;28;20087;-72
2021/05/21 08:55:42;;;;;;;3.63;0.95;;;21.30;99.90;;;;;;5033255;28;20021;-71
2021/05/21 08:58:13;;;;;;;6.03;0.93;;;21.10;99.90;;;;;;5030773;28;20475;-70
2021/05/21 09:00:42;;;;;;;8.75;0.75;;;21.00;99.90;;;;;;5031672;28;20079;-73
2021/05/21 09:03:23;;;;;;;4.28;1.45;;;21.00;99.90;;;;;;5031413;28;20048;-71
2021/05/21 09:06:13;;;;;;;0.55;0.55;;;21.20;99.90;;;;;;5029052;28;20523;-72
2021/05/21 09:08:52;;;;;;;3.50;1.10;;;21.20;99.90;;;;;;5022074;28;20116;-71
2021/05/21 09:11:28;;;;;;;5.13;1.00;;;21.30;99.90;;;;;;5032775;28;20024;-71
2021/05/21 09:14:20;;;;;;;2.55;1.02;;;21.40;99.90;;;;;;5031339;28;20021;-72
2021/05/21 09:16:47;;;;;;;7.03;1.55;;;21.50;99.90;;;;;;5027884;28;20096;-71
2021/05/21 09:19:17;;;;;;;2.88;1.38;;;21.30;99.90;;;;;;5029731;28;20028;-72
2021/05/21 09:22:04;;;;;;;2.72;1.27;;;21.30;99.90;;;;;;5030436;28;20132;-73
2021/05/21 09:24:39;;;;;;;2.72;0.90;;;21.30;99.90;;;;;;5028637;28;20423;-72
2021/05/21 09:27:06;;;;;;;1.88;1.20;;;21.40;99.90;;;;;;5042680;28;20032;-71
2021/05/21 09:29:42;;;;;;;5.25;1.02;;;21.40;99.90;;;;;;5036064;28;20021;-70
2021/05/21 09:32:18;;;;;;;1.63;0.98;;;21.40;99.90;;;;;;5031138;28;20529;-71
2021/05/21 09:34:48;;;;;;;0.98;0.80;;;21.70;99.90;;;;;;5029159;28;20053;-70
2021/05/21 09:37:22;;;;;;;2.85;1.05;;;21.90;99.90;;;;;;5030532;28;20030;-71
2021/05/21 09:40:05;;;;;;;4.43;1.10;;;22.00;99.90;;;;;;5040278;28;20021;-71
2021/05/21 09:42:55;;;;;;;12.38;1.42;;;22.10;99.90;;;;;;5039562;28;20099;-70
2021/05/21 09:45:47;;;;;;;5.53;1.65;;;22.30;99.90;;;;;;5031277;28;20489;-69
2021/05/21 09:48:15;;;;;;;;;;;22.50;99.90;;;;;;5017792;28;20060;-69
2021/05/21 09:50:43;;;;;;;4.80;1.83;;;22.40;99.90;;;;;;5034808;28;19909;-69
2021/05/21 09:53:13;;;;;;;4.15;1.70;;;22.50;99.90;;;;;;5038652;28;20102;-70
2021/05/21 09:55:52;;;;;;;1.10;0.90;;;22.70;99.90;;;;;;5038348;28;20025;-70
2021/05/21 09:58:35;;;;;;;3.25;0.93;;;22.80;99.90;;;;;;5048470;28;20040;-70
2021/05/21 10:01:14;;;;;;;4.53;1.40;;;23.00;99.90;;;;;;5035192;28;20029;-72
2021/05/21 10:03:47;;;;;;;5.60;1.00;;;23.00;99.90;;;;;;5035362;28;20074;-72
2021/05/21 10:06:14;;;;;;;6.30;1.42;;;23.10;99.90;;;;;;5039357;28;20032;-72
2021/05/21 10:08:42;;;;;;;3.67;0.98;;;23.00;99.90;;;;;;5033160;28;20025;-71
2021/05/21 10:11:08;;;;;;;2.22;0.73;;;23.00;99.90;;;;;;5030561;28;20083;-71
2021/05/21 10:13:35;;;;;;;1.50;1.00;;;23.10;99.90;;;;;;5030002;28;20017;-70
2021/05/21 10:16:01;;;;;;;2.50;1.40;;;22.90;99.90;;;;;;5028825;28;20435;-73
2021/05/21 10:18:29;;;;;;;2.38;1.42;;;22.50;99.90;;;;;;5032408;28;20028;-74
2021/05/21 10:20:57;;;;;;;3.83;1.45;;;22.40;99.90;;;;;;5041604;28;20025;-73
2021/05/21 10:23:26;;;;;;;4.50;2.25;;;22.50;99.90;;;;;;5017432;28;20772;-74
2021/05/21 10:25:56;;;;;;;5.00;1.38;;;22.50;99.90;;;;;;5020845;28;20027;-73
2021/05/21 10:28:27;;;;;;;2.83;1.45;;;22.40;99.90;;;;;;5022783;28;20087;-73
2021/05/21 10:30:59;;;;;;;1.02;0.82;;;22.40;99.90;;;;;;5018349;28;20398;-73
2021/05/21 10:33:32;;;;;;;1.13;0.98;;;22.50;99.90;;;;;;5018319;28;20017;-73
2021/05/21 10:36:16;;;;;;;4.57;0.98;;;22.70;99.90;;;;;;5025317;28;20028;-72
2021/05/21 10:39:05;;;;;;;2.25;0.90;;;22.80;99.90;;;;;;5030184;28;20505;-74
2021/05/21 10:41:31;;;;;;;4.93;1.08;;;22.80;99.90;;;;;;5029537;28;20402;-72
2021/05/21 10:43:59;;;;;;;0.70;0.70;;;23.00;99.90;;;;;;5014538;28;20475;-70
2021/05/21 10:46:26;;;;;;;5.55;1.20;;;23.00;99.90;;;;;;5025951;28;20025;-70
2021/05/21 10:48:57;;;;;;;1.73;0.75;;;22.80;99.90;;;;;;5026439;28;20093;-70
2021/05/21 10:51:25;;;;;;;4.13;1.00;;;22.70;99.90;;;;;;5029516;28;20022;-71
2021/05/21 10:54:28;;;;;;;3.28;1.40;;;22.60;99.90;;;;;;5028228;28;20479;-70
2021/05/21 10:57:07;;;;;;;3.70;0.82;;;22.50;99.90;;;;;;5026531;28;20463;-71
2021/05/21 11:00:00;;;;;;;3.70;1.13;;;22.50;99.90;;;;;;5026900;28;20009;-72
2021/05/21 11:02:45;;;;;;;1.65;0.93;;;22.10;99.90;;;;;;5009506;28;20030;-71
2021/05/21 11:05:22;;;;;;;3.20;1.33;;;21.90;99.90;;;;;;5027896;28;20063;-71
2021/05/21 11:07:57;;;;;;;2.00;0.80;;;21.70;99.90;;;;;;5028294;28;20105;-72
2021/05/21 11:10:32;;;;;;;8.82;2.92;;;21.70;99.90;;;;;;5031262;28;20378;-71
2021/05/21 11:13:02;;;;;;;2.40;1.10;;;21.70;99.90;;;;;;5030280;28;20379;-71
2021/05/21 11:15:34;;;;;;;1.73;0.80;;;21.60;99.90;;;;;;5029896;28;20390;-72
2021/05/21 11:18:15;;;;;;;1.00;0.85;;;21.50;99.90;;;;;;5027270;28;20032;-75
2021/05/21 11:21:05;;;;;;;1.55;1.05;;;21.30;99.90;;;;;;5023688;28;20029;-74
2021/05/21 11:23:39;;;;;;;4.22;1.35;;;21.50;99.90;;;;;;5029194;28;20108;-75
2021/05/21 11:26:14;;;;;;;1.95;0.93;;;21.50;99.90;;;;;;5029899;28;20031;-76
2021/05/21 11:28:53;;;;;;;2.45;1.48;;;21.40;99.90;;;;;;5019852;28;20033;-74
2021/05/21 11:31:31;;;;;;;6.72;1.27;;;21.50;99.90;;;;;;5029895;28;20040;-75
2021/05/21 11:33:59;;;;;;;2.30;0.88;;;21.40;99.90;;;;;;5030187;28;20029;-74
2021/05/21 11:36:27;;;;;;;4.40;1.52;;;21.30;99.90;;;;;;5029622;28;20025;-75
2021/05/21 11:38:53;;;;;;;1.52;1.42;;;21.10;99.90;;;;;;5013706;28;20125;-74
2021/05/21 11:41:44;;;;;;;3.38;1.10;;;21.10;99.90;;;;;;5032169;28;20033;-75
2021/05/21 11:44:11;;;;;;;4.05;1.35;;;21.20;99.90;;;;;;5023709;28;20034;-74
2021/05/21 11:46:43;;;;;;;1.48;0.98;;;21.30;99.90;;;;;;5029403;28;20039;-75
2021/05/21 11:49:19;;;;;;;2.67;1.30;;;21.30;99.90;;;;;;5022816;28;20025;-76
2021/05/21 11:51:53;;;;;;;7.32;1.73;;;21.70;99.90;;;;;;5041946;28;20065;-75
2021/05/21 11:54:20;;;;;;;3.22;1.58;;;21.70;99.90;;;;;;5033058;28;20017;-76
2021/05/21 11:56:46;;;;;;;2.88;1.63;;;21.60;99.90;;;;;;5032719;28;20029;-76
2021/05/21 11:59:14;;;;;;;3.85;2.13;;;21.50;99.90;;;;;;5032558;28;20032;-75
2021/05/21 12:01:51;;;;;;;4.55;1.73;;;21.60;99.90;;;;;;5032607;28;20033;-76
2021/05/21 12:04:18;;;;;;;6.57;1.67;;;21.60;99.90;;;;;;5032830;28;20089;-76
2021/05/21 12:06:50;;;;;;;6.63;1.65;;;21.60;99.90;;;;;;5032384;28;20025;-75
2021/05/21 12:09:20;;;;;;;2.88;1.70;;;21.60;99.90;;;;;;5032656;28;20024;-77
2021/05/21 12:11:48;;;;;;;4.22;1.60;;;21.50;99.90;;;;;;5026428;28;20116;-77
2021/05/21 12:14:16;;;;;;;3.45;1.92;;;21.50;99.90;;;;;;5030085;28;20022;-76
2021/05/21 12:16:43;;;;;;;3.78;2.00;;;21.40;99.90;;;;;;5027598;28;20109;-76
2021/05/21 12:19:12;;;;;;;6.13;1.88;;;21.60;99.90;;;;;;5034453;28;20052;-75
2021/05/21 12:21:43;;;;;;;3.50;2.10;;;22.00;99.90;;;;;;5046450;28;20033;-75
2021/05/21 12:24:11;;;;;;;;;;;22.20;99.90;;;;;;5034340;28;20124;-74
2021/05/21 12:26:39;;;;;;;5.15;1.60;;;22.60;99.90;;;;;;5032834;28;19912;-75
2021/05/21 12:29:07;;;;;;;8.25;2.35;;;22.80;99.90;;;;;;5032365;28;20037;-75
2021/05/21 12:31:53;;;;;;;6.60;1.77;;;22.70;99.90;;;;;;5032712;28;20022;-75
2021/05/21 12:34:20;;;;;;;7.15;1.63;;;22.60;99.90;;;;;;5033428;28;20399;-75
2021/05/21 12:37:01;;;;;;;2.78;1.83;;;22.20;99.90;;;;;;5031034;28;20072;-75
2021/05/21 12:39:44;;;;;;;3.40;2.00;;;22.00;99.90;;;;;;5031359;28;20478;-75
2021/05/21 12:42:21;;;;;;;3.10;1.50;;;21.80;99.90;;;;;;5032253;28;20025;-75
2021/05/21 12:44:53;;;;;;;3.50;1.90;;;22.10;99.90;;;;;;5032150;28;20474;-75
2021/05/21 12:47:20;;;;;;;9.38;1.92;;;22.40;99.90;;;;;;5030463;28;20030;-75
2021/05/21 12:49:48;;;;;;;4.03;1.98;;;22.60;99.90;;;;;;5020644;28;20017;-75
2021/05/21 12:52:14;;;;;;;5.57;1.30;;;22.70;99.90;;;;;;5032411;28;20026;-75
2021/05/21 12:54:44;;;;;;;9.43;1.42;;;22.80;99.90;;;;;;5032044;28;20066;-75